sensor_id;sensor_type;location;lat;lon;timestamp;P1;durP1;ratioP1;P2;durP2;ratioP2
68647;SDS011;55632;51.962;16.116;2023-07-16T00:01:33;3.97;;;2.58;;
68647;SDS011;55632;51.962;16.116;2023-07-16T00:06:33;3.13;;;2.83;;
68647;SDS011;55632;51.962;16.116;2023-07-16T00:11:34;7.75;;;3.20;;
68647;SDS011;55632;51.962;16.116;2023-07-16T00:16:35;4.95;;;2.70;;
68647;SDS011;55632;51.962;16.116;2023-07-16T00:21:36;4.18;;;2.55;;
68647;SDS011;55632;51.962;16.116;2023-07-16T00:26:37;3.42;;;3.10;;
68647;SDS011;55632;51.962;16.116;2023-07-16T00:31:39;6.38;;;3.00;;
68647;SDS011;55632;51.962;16.116;2023-07-16T00:36:40;4.75;;;3.20;;
68647;SDS011;55632;51.962;16.116;2023-07-16T00:41:41;3.70;;;3.03;;
68647;SDS011;55632;51.962;16.116;2023-07-16T00:46:42;5.70;;;3.08;;
68647;SDS011;55632;51.962;16.116;2023-07-16T00:51:46;17.23;;;3.20;;
68647;SDS011;55632;51.962;16.116;2023-07-16T00:56:48;8.32;;;3.08;;
68647;SDS011;55632;51.962;16.116;2023-07-16T01:01:51;5.00;;;3.30;;
68647;SDS011;55632;51.962;16.116;2023-07-16T01:06:53;4.50;;;3.00;;
68647;SDS011;55632;51.962;16.116;2023-07-16T01:11:56;5.40;;;3.33;;
68647;SDS011;55632;51.962;16.116;2023-07-16T01:17:04;5.85;;;2.97;;
68647;SDS011;55632;51.962;16.116;2023-07-16T01:32:30;4.70;;;3.03;;
68647;SDS011;55632;51.962;16.116;2023-07-16T01:37:35;3.58;;;3.25;;
68647;SDS011;55632;51.962;16.116;2023-07-16T01:42:41;7.18;;;3.35;;
68647;SDS011;55632;51.962;16.116;2023-07-16T01:53:20;4.60;;;3.35;;
68647;SDS011;55632;51.962;16.116;2023-07-16T01:58:27;4.72;;;3.55;;
68647;SDS011;55632;51.962;16.116;2023-07-16T02:03:31;4.15;;;3.20;;
68647;SDS011;55632;51.962;16.116;2023-07-16T02:08:31;3.85;;;3.13;;
68647;SDS011;55632;51.962;16.116;2023-07-16T02:13:35;3.13;;;2.80;;
68647;SDS011;55632;51.962;16.116;2023-07-16T02:18:40;5.13;;;3.13;;
68647;SDS011;55632;51.962;16.116;2023-07-16T02:24:16;6.27;;;3.50;;
68647;SDS011;55632;51.962;16.116;2023-07-16T02:29:17;6.00;;;3.70;;
68647;SDS011;55632;51.962;16.116;2023-07-16T02:34:24;5.18;;;3.10;;
68647;SDS011;55632;51.962;16.116;2023-07-16T02:39:27;4.57;;;3.60;;
68647;SDS011;55632;51.962;16.116;2023-07-16T02:44:28;8.85;;;3.72;;
68647;SDS011;55632;51.962;16.116;2023-07-16T02:49:32;5.55;;;3.45;;
68647;SDS011;55632;51.962;16.116;2023-07-16T02:54:34;4.80;;;3.55;;
68647;SDS011;55632;51.962;16.116;2023-07-16T02:59:36;8.25;;;3.40;;
68647;SDS011;55632;51.962;16.116;2023-07-16T03:04:39;8.35;;;4.28;;
68647;SDS011;55632;51.962;16.116;2023-07-16T03:09:40;6.40;;;3.40;;
68647;SDS011;55632;51.962;16.116;2023-07-16T03:14:41;6.25;;;3.38;;
68647;SDS011;55632;51.962;16.116;2023-07-16T03:19:43;5.13;;;2.83;;
68647;SDS011;55632;51.962;16.116;2023-07-16T03:24:44;5.47;;;2.80;;
68647;SDS011;55632;51.962;16.116;2023-07-16T03:29:45;4.90;;;2.70;;
68647;SDS011;55632;51.962;16.116;2023-07-16T03:34:48;4.03;;;2.38;;
68647;SDS011;55632;51.962;16.116;2023-07-16T03:39:52;6.05;;;2.70;;
68647;SDS011;55632;51.962;16.116;2023-07-16T03:44:53;3.63;;;2.60;;
68647;SDS011;55632;51.962;16.116;2023-07-16T03:49:57;2.67;;;2.38;;
68647;SDS011;55632;51.962;16.116;2023-07-16T03:55:01;4.95;;;2.80;;
68647;SDS011;55632;51.962;16.116;2023-07-16T04:00:06;6.20;;;2.53;;
68647;SDS011;55632;51.962;16.116;2023-07-16T04:05:18;2.92;;;2.40;;
68647;SDS011;55632;51.962;16.116;2023-07-16T04:10:24;3.05;;;2.60;;
68647;SDS011;55632;51.962;16.116;2023-07-16T04:15:28;3.78;;;2.40;;
68647;SDS011;55632;51.962;16.116;2023-07-16T04:20:35;3.60;;;2.30;;
68647;SDS011;55632;51.962;16.116;2023-07-16T04:25:38;5.18;;;2.30;;
68647;SDS011;55632;51.962;16.116;2023-07-16T04:30:41;3.30;;;2.20;;
68647;SDS011;55632;51.962;16.116;2023-07-16T04:35:42;6.30;;;2.30;;
68647;SDS011;55632;51.962;16.116;2023-07-16T04:40:43;3.28;;;2.00;;
68647;SDS011;55632;51.962;16.116;2023-07-16T04:45:44;2.42;;;1.92;;
68647;SDS011;55632;51.962;16.116;2023-07-16T04:50:48;4.47;;;2.22;;
68647;SDS011;55632;51.962;16.116;2023-07-16T04:55:48;1.88;;;1.60;;
68647;SDS011;55632;51.962;16.116;2023-07-16T05:00:51;4.50;;;2.00;;
68647;SDS011;55632;51.962;16.116;2023-07-16T05:05:52;3.67;;;1.80;;
68647;SDS011;55632;51.962;16.116;2023-07-16T05:10:53;4.03;;;2.00;;
68647;SDS011;55632;51.962;16.116;2023-07-16T05:15:54;3.45;;;1.88;;
68647;SDS011;55632;51.962;16.116;2023-07-16T05:20:55;2.22;;;1.60;;
68647;SDS011;55632;51.962;16.116;2023-07-16T05:25:56;2.00;;;1.88;;
68647;SDS011;55632;51.962;16.116;2023-07-16T05:30:57;2.42;;;1.75;;
68647;SDS011;55632;51.962;16.116;2023-07-16T05:36:01;3.10;;;1.80;;
68647;SDS011;55632;51.962;16.116;2023-07-16T05:41:03;2.95;;;1.80;;
68647;SDS011;55632;51.962;16.116;2023-07-16T05:46:05;2.97;;;1.70;;
68647;SDS011;55632;51.962;16.116;2023-07-16T05:51:06;3.35;;;1.77;;
68647;SDS011;55632;51.962;16.116;2023-07-16T05:56:07;1.77;;;1.65;;
68647;SDS011;55632;51.962;16.116;2023-07-16T06:01:11;2.17;;;1.70;;
68647;SDS011;55632;51.962;16.116;2023-07-16T06:06:11;2.13;;;1.50;;
68647;SDS011;55632;51.962;16.116;2023-07-16T06:11:12;4.40;;;1.70;;
68647;SDS011;55632;51.962;16.116;2023-07-16T06:16:13;5.60;;;1.40;;
68647;SDS011;55632;51.962;16.116;2023-07-16T06:21:16;1.38;;;1.27;;
68647;SDS011;55632;51.962;16.116;2023-07-16T06:26:17;2.53;;;1.25;;
68647;SDS011;55632;51.962;16.116;2023-07-16T06:31:18;1.83;;;1.50;;
68647;SDS011;55632;51.962;16.116;2023-07-16T06:36:19;3.60;;;1.48;;
68647;SDS011;55632;51.962;16.116;2023-07-16T06:41:22;1.50;;;1.20;;
68647;SDS011;55632;51.962;16.116;2023-07-16T06:46:23;1.42;;;1.10;;
68647;SDS011;55632;51.962;16.116;2023-07-16T06:51:24;2.70;;;1.48;;
68647;SDS011;55632;51.962;16.116;2023-07-16T06:56:25;1.50;;;1.40;;
68647;SDS011;55632;51.962;16.116;2023-07-16T07:01:26;1.60;;;1.25;;
68647;SDS011;55632;51.962;16.116;2023-07-16T07:06:31;3.95;;;1.50;;
68647;SDS011;55632;51.962;16.116;2023-07-16T07:11:31;2.90;;;1.50;;
68647;SDS011;55632;51.962;16.116;2023-07-16T07:16:35;1.40;;;1.30;;
68647;SDS011;55632;51.962;16.116;2023-07-16T07:21:35;2.50;;;1.48;;
68647;SDS011;55632;51.962;16.116;2023-07-16T07:26:39;1.95;;;1.30;;
68647;SDS011;55632;51.962;16.116;2023-07-16T07:31:43;5.72;;;1.20;;
68647;SDS011;55632;51.962;16.116;2023-07-16T07:36:44;1.77;;;1.20;;
68647;SDS011;55632;51.962;16.116;2023-07-16T07:41:49;4.70;;;1.40;;
68647;SDS011;55632;51.962;16.116;2023-07-16T07:46:52;2.83;;;1.45;;
68647;SDS011;55632;51.962;16.116;2023-07-16T07:51:53;1.92;;;1.50;;
68647;SDS011;55632;51.962;16.116;2023-07-16T07:57:03;2.92;;;1.70;;
68647;SDS011;55632;51.962;16.116;2023-07-16T08:02:05;4.78;;;1.58;;
68647;SDS011;55632;51.962;16.116;2023-07-16T08:07:06;3.60;;;1.65;;
68647;SDS011;55632;51.962;16.116;2023-07-16T08:12:07;3.22;;;2.10;;
68647;SDS011;55632;51.962;16.116;2023-07-16T08:17:08;5.70;;;2.00;;
68647;SDS011;55632;51.962;16.116;2023-07-16T08:22:09;3.65;;;2.50;;
68647;SDS011;55632;51.962;16.116;2023-07-16T08:27:13;4.43;;;3.30;;
68647;SDS011;55632;51.962;16.116;2023-07-16T08:32:14;2.40;;;1.85;;
68647;SDS011;55632;51.962;16.116;2023-07-16T08:37:15;2.83;;;2.08;;
68647;SDS011;55632;51.962;16.116;2023-07-16T08:42:16;2.53;;;1.90;;
68647;SDS011;55632;51.962;16.116;2023-07-16T08:47:17;3.63;;;1.70;;
68647;SDS011;55632;51.962;16.116;2023-07-16T08:52:18;4.05;;;1.90;;
68647;SDS011;55632;51.962;16.116;2023-07-16T08:57:19;4.03;;;1.83;;
68647;SDS011;55632;51.962;16.116;2023-07-16T09:02:21;1.80;;;1.70;;
68647;SDS011;55632;51.962;16.116;2023-07-16T09:07:23;4.10;;;1.70;;
68647;SDS011;55632;51.962;16.116;2023-07-16T09:12:24;3.15;;;1.80;;
68647;SDS011;55632;51.962;16.116;2023-07-16T09:17:25;2.17;;;1.80;;
68647;SDS011;55632;51.962;16.116;2023-07-16T09:22:26;2.08;;;1.85;;
68647;SDS011;55632;51.962;16.116;2023-07-16T09:27:27;3.67;;;2.13;;
68647;SDS011;55632;51.962;16.116;2023-07-16T09:32:33;6.05;;;1.80;;
68647;SDS011;55632;51.962;16.116;2023-07-16T09:37:38;2.75;;;2.28;;
68647;SDS011;55632;51.962;16.116;2023-07-16T09:42:40;2.55;;;2.05;;
68647;SDS011;55632;51.962;16.116;2023-07-16T09:47:42;2.50;;;2.10;;
68647;SDS011;55632;51.962;16.116;2023-07-16T09:52:44;2.45;;;1.85;;
68647;SDS011;55632;51.962;16.116;2023-07-16T09:57:47;2.28;;;2.10;;
68647;SDS011;55632;51.962;16.116;2023-07-16T10:02:49;2.95;;;2.00;;
68647;SDS011;55632;51.962;16.116;2023-07-16T10:07:53;1.90;;;1.80;;
68647;SDS011;55632;51.962;16.116;2023-07-16T10:13:01;3.22;;;1.95;;
68647;SDS011;55632;51.962;16.116;2023-07-16T10:18:05;2.95;;;2.08;;
68647;SDS011;55632;51.962;16.116;2023-07-16T10:23:10;3.15;;;2.00;;
68647;SDS011;55632;51.962;16.116;2023-07-16T10:28:15;2.07;;;1.87;;
68647;SDS011;55632;51.962;16.116;2023-07-16T10:33:18;2.53;;;1.90;;
68647;SDS011;55632;51.962;16.116;2023-07-16T10:38:20;1.95;;;1.60;;
68647;SDS011;55632;51.962;16.116;2023-07-16T10:43:21;4.85;;;1.85;;
68647;SDS011;55632;51.962;16.116;2023-07-16T10:48:25;1.88;;;1.60;;
68647;SDS011;55632;51.962;16.116;2023-07-16T10:53:27;3.72;;;1.98;;
68647;SDS011;55632;51.962;16.116;2023-07-16T10:58:27;3.72;;;2.03;;
68647;SDS011;55632;51.962;16.116;2023-07-16T11:03:28;2.60;;;1.85;;
68647;SDS011;55632;51.962;16.116;2023-07-16T11:08:29;2.67;;;2.10;;
68647;SDS011;55632;51.962;16.116;2023-07-16T11:13:31;2.85;;;2.05;;
68647;SDS011;55632;51.962;16.116;2023-07-16T11:18:32;4.78;;;1.85;;
68647;SDS011;55632;51.962;16.116;2023-07-16T11:23:34;2.58;;;1.50;;
68647;SDS011;55632;51.962;16.116;2023-07-16T11:28:36;1.63;;;1.52;;
68647;SDS011;55632;51.962;16.116;2023-07-16T11:33:47;2.22;;;1.55;;
68647;SDS011;55632;51.962;16.116;2023-07-16T11:38:48;3.25;;;1.95;;
68647;SDS011;55632;51.962;16.116;2023-07-16T11:43:50;1.70;;;1.60;;
68647;SDS011;55632;51.962;16.116;2023-07-16T11:48:51;1.70;;;1.60;;
68647;SDS011;55632;51.962;16.116;2023-07-16T11:53:55;3.78;;;1.70;;
68647;SDS011;55632;51.962;16.116;2023-07-16T11:58:57;1.80;;;1.67;;
68647;SDS011;55632;51.962;16.116;2023-07-16T12:03:58;1.95;;;1.55;;
68647;SDS011;55632;51.962;16.116;2023-07-16T12:08:59;2.53;;;1.48;;
68647;SDS011;55632;51.962;16.116;2023-07-16T12:14:00;1.75;;;1.65;;
68647;SDS011;55632;51.962;16.116;2023-07-16T12:19:01;3.15;;;1.60;;
68647;SDS011;55632;51.962;16.116;2023-07-16T12:24:02;2.30;;;1.90;;
68647;SDS011;55632;51.962;16.116;2023-07-16T12:29:04;1.70;;;1.60;;
68647;SDS011;55632;51.962;16.116;2023-07-16T12:34:05;2.08;;;1.60;;
68647;SDS011;55632;51.962;16.116;2023-07-16T12:39:06;3.85;;;1.77;;
68647;SDS011;55632;51.962;16.116;2023-07-16T12:44:07;2.17;;;1.55;;
68647;SDS011;55632;51.962;16.116;2023-07-16T12:49:08;4.75;;;1.65;;
68647;SDS011;55632;51.962;16.116;2023-07-16T12:54:09;2.03;;;1.58;;
68647;SDS011;55632;51.962;16.116;2023-07-16T12:59:10;2.15;;;1.60;;
68647;SDS011;55632;51.962;16.116;2023-07-16T13:04:11;3.10;;;1.73;;
68647;SDS011;55632;51.962;16.116;2023-07-16T13:09:12;2.72;;;1.38;;
68647;SDS011;55632;51.962;16.116;2023-07-16T13:14:12;3.15;;;1.55;;
68647;SDS011;55632;51.962;16.116;2023-07-16T13:19:13;3.10;;;1.67;;
68647;SDS011;55632;51.962;16.116;2023-07-16T13:24:14;14.20;;;2.20;;
68647;SDS011;55632;51.962;16.116;2023-07-16T13:29:15;4.78;;;2.55;;
68647;SDS011;55632;51.962;16.116;2023-07-16T13:34:16;4.00;;;1.80;;
68647;SDS011;55632;51.962;16.116;2023-07-16T13:39:16;3.05;;;1.80;;
68647;SDS011;55632;51.962;16.116;2023-07-16T13:44:21;2.78;;;1.77;;
68647;SDS011;55632;51.962;16.116;2023-07-16T13:49:22;5.28;;;1.75;;
68647;SDS011;55632;51.962;16.116;2023-07-16T13:54:23;4.82;;;1.70;;
68647;SDS011;55632;51.962;16.116;2023-07-16T13:59:24;4.53;;;1.63;;
68647;SDS011;55632;51.962;16.116;2023-07-16T14:04:25;3.40;;;1.85;;
68647;SDS011;55632;51.962;16.116;2023-07-16T14:09:29;3.13;;;1.98;;
68647;SDS011;55632;51.962;16.116;2023-07-16T14:14:30;3.95;;;2.10;;
68647;SDS011;55632;51.962;16.116;2023-07-16T14:19:31;5.53;;;1.80;;
68647;SDS011;55632;51.962;16.116;2023-07-16T14:24:32;2.25;;;1.60;;
68647;SDS011;55632;51.962;16.116;2023-07-16T14:29:36;3.15;;;1.95;;
68647;SDS011;55632;51.962;16.116;2023-07-16T14:34:37;3.58;;;1.88;;
68647;SDS011;55632;51.962;16.116;2023-07-16T14:39:38;6.60;;;2.05;;
68647;SDS011;55632;51.962;16.116;2023-07-16T14:44:39;3.78;;;1.77;;
68647;SDS011;55632;51.962;16.116;2023-07-16T14:49:40;3.20;;;1.85;;
68647;SDS011;55632;51.962;16.116;2023-07-16T14:54:42;5.15;;;1.95;;
68647;SDS011;55632;51.962;16.116;2023-07-16T14:59:46;4.88;;;2.20;;
68647;SDS011;55632;51.962;16.116;2023-07-16T15:04:47;6.20;;;2.40;;
68647;SDS011;55632;51.962;16.116;2023-07-16T15:09:48;2.80;;;1.88;;
68647;SDS011;55632;51.962;16.116;2023-07-16T15:14:49;3.10;;;2.30;;
68647;SDS011;55632;51.962;16.116;2023-07-16T15:19:51;3.85;;;2.00;;
68647;SDS011;55632;51.962;16.116;2023-07-16T15:24:52;3.15;;;1.90;;
68647;SDS011;55632;51.962;16.116;2023-07-16T15:29:53;7.75;;;2.28;;
68647;SDS011;55632;51.962;16.116;2023-07-16T15:34:55;4.65;;;2.50;;
68647;SDS011;55632;51.962;16.116;2023-07-16T15:39:56;3.75;;;2.20;;
68647;SDS011;55632;51.962;16.116;2023-07-16T15:44:59;5.43;;;2.53;;
68647;SDS011;55632;51.962;16.116;2023-07-16T15:50:00;3.60;;;2.70;;
68647;SDS011;55632;51.962;16.116;2023-07-16T15:55:00;6.68;;;2.10;;
68647;SDS011;55632;51.962;16.116;2023-07-16T16:00:02;5.03;;;2.47;;
68647;SDS011;55632;51.962;16.116;2023-07-16T16:05:12;4.60;;;2.40;;
68647;SDS011;55632;51.962;16.116;2023-07-16T16:10:14;3.17;;;2.42;;
68647;SDS011;55632;51.962;16.116;2023-07-16T16:15:18;4.25;;;2.45;;
68647;SDS011;55632;51.962;16.116;2023-07-16T16:20:19;3.28;;;2.13;;
68647;SDS011;55632;51.962;16.116;2023-07-16T16:25:20;4.22;;;2.58;;
68647;SDS011;55632;51.962;16.116;2023-07-16T16:30:20;6.43;;;2.20;;
68647;SDS011;55632;51.962;16.116;2023-07-16T16:35:21;5.63;;;2.28;;
68647;SDS011;55632;51.962;16.116;2023-07-16T16:40:22;4.10;;;2.58;;
68647;SDS011;55632;51.962;16.116;2023-07-16T16:45:23;4.20;;;2.20;;
68647;SDS011;55632;51.962;16.116;2023-07-16T16:50:24;4.55;;;2.30;;
68647;SDS011;55632;51.962;16.116;2023-07-16T16:55:26;4.30;;;2.30;;
68647;SDS011;55632;51.962;16.116;2023-07-16T17:00:27;3.88;;;2.20;;
68647;SDS011;55632;51.962;16.116;2023-07-16T17:05:28;5.15;;;2.50;;
68647;SDS011;55632;51.962;16.116;2023-07-16T17:10:30;5.68;;;2.53;;
68647;SDS011;55632;51.962;16.116;2023-07-16T17:15:31;4.80;;;2.83;;
68647;SDS011;55632;51.962;16.116;2023-07-16T17:20:34;4.65;;;2.58;;
68647;SDS011;55632;51.962;16.116;2023-07-16T17:25:35;2.55;;;2.20;;
68647;SDS011;55632;51.962;16.116;2023-07-16T17:30:36;5.85;;;2.50;;
68647;SDS011;55632;51.962;16.116;2023-07-16T17:35:37;6.72;;;2.25;;
68647;SDS011;55632;51.962;16.116;2023-07-16T17:40:38;2.13;;;1.92;;
68647;SDS011;55632;51.962;16.116;2023-07-16T17:45:39;5.93;;;4.05;;
68647;SDS011;55632;51.962;16.116;2023-07-16T17:50:40;4.00;;;2.80;;
68647;SDS011;55632;51.962;16.116;2023-07-16T17:55:41;9.15;;;5.70;;
68647;SDS011;55632;51.962;16.116;2023-07-16T18:00:45;16.02;;;6.57;;
68647;SDS011;55632;51.962;16.116;2023-07-16T18:05:49;6.45;;;4.03;;
68647;SDS011;55632;51.962;16.116;2023-07-16T18:10:51;9.32;;;4.15;;
68647;SDS011;55632;51.962;16.116;2023-07-16T18:16:04;5.28;;;2.83;;
68647;SDS011;55632;51.962;16.116;2023-07-16T18:21:12;7.70;;;3.53;;
68647;SDS011;55632;51.962;16.116;2023-07-16T18:26:12;5.18;;;3.25;;
68647;SDS011;55632;51.962;16.116;2023-07-16T18:31:13;6.93;;;2.95;;
68647;SDS011;55632;51.962;16.116;2023-07-16T18:36:14;9.07;;;3.38;;
68647;SDS011;55632;51.962;16.116;2023-07-16T18:41:15;6.55;;;2.95;;
68647;SDS011;55632;51.962;16.116;2023-07-16T18:46:16;5.65;;;2.83;;
68647;SDS011;55632;51.962;16.116;2023-07-16T18:51:20;6.53;;;3.03;;
68647;SDS011;55632;51.962;16.116;2023-07-16T18:56:24;27.83;;;4.35;;
68647;SDS011;55632;51.962;16.116;2023-07-16T19:01:24;6.63;;;3.08;;
68647;SDS011;55632;51.962;16.116;2023-07-16T19:06:25;5.32;;;2.22;;
68647;SDS011;55632;51.962;16.116;2023-07-16T19:11:26;7.43;;;2.70;;
68647;SDS011;55632;51.962;16.116;2023-07-16T19:16:27;6.22;;;2.42;;
68647;SDS011;55632;51.962;16.116;2023-07-16T19:21:28;5.05;;;2.72;;
68647;SDS011;55632;51.962;16.116;2023-07-16T19:26:29;11.55;;;4.28;;
68647;SDS011;55632;51.962;16.116;2023-07-16T19:31:31;11.10;;;3.55;;
68647;SDS011;55632;51.962;16.116;2023-07-16T19:36:32;8.82;;;5.13;;
68647;SDS011;55632;51.962;16.116;2023-07-16T19:41:34;21.48;;;8.77;;
68647;SDS011;55632;51.962;16.116;2023-07-16T19:46:35;12.15;;;4.45;;
68647;SDS011;55632;51.962;16.116;2023-07-16T19:51:37;9.88;;;5.05;;
68647;SDS011;55632;51.962;16.116;2023-07-16T19:56:47;8.68;;;4.07;;
68647;SDS011;55632;51.962;16.116;2023-07-16T20:01:50;6.88;;;3.67;;
68647;SDS011;55632;51.962;16.116;2023-07-16T20:06:51;7.15;;;4.07;;
68647;SDS011;55632;51.962;16.116;2023-07-16T20:11:55;8.02;;;3.40;;
68647;SDS011;55632;51.962;16.116;2023-07-16T20:16:55;6.70;;;3.08;;
68647;SDS011;55632;51.962;16.116;2023-07-16T20:21:56;7.47;;;3.30;;
68647;SDS011;55632;51.962;16.116;2023-07-16T20:26:57;9.13;;;3.88;;
68647;SDS011;55632;51.962;16.116;2023-07-16T20:32:02;7.50;;;3.85;;
68647;SDS011;55632;51.962;16.116;2023-07-16T20:37:04;11.02;;;3.83;;
68647;SDS011;55632;51.962;16.116;2023-07-16T20:42:05;7.90;;;3.03;;
68647;SDS011;55632;51.962;16.116;2023-07-16T20:47:07;12.23;;;3.28;;
68647;SDS011;55632;51.962;16.116;2023-07-16T20:52:08;7.07;;;3.78;;
68647;SDS011;55632;51.962;16.116;2023-07-16T20:57:09;9.73;;;6.68;;
68647;SDS011;55632;51.962;16.116;2023-07-16T21:02:10;5.68;;;3.58;;
68647;SDS011;55632;51.962;16.116;2023-07-16T21:07:11;10.80;;;5.63;;
68647;SDS011;55632;51.962;16.116;2023-07-16T21:12:12;15.77;;;5.40;;
68647;SDS011;55632;51.962;16.116;2023-07-16T21:17:13;17.38;;;4.97;;
68647;SDS011;55632;51.962;16.116;2023-07-16T21:22:14;10.90;;;5.15;;
68647;SDS011;55632;51.962;16.116;2023-07-16T21:27:22;11.57;;;4.70;;
68647;SDS011;55632;51.962;16.116;2023-07-16T21:32:27;10.85;;;4.10;;
68647;SDS011;55632;51.962;16.116;2023-07-16T21:37:28;5.78;;;3.60;;
68647;SDS011;55632;51.962;16.116;2023-07-16T21:42:38;7.63;;;3.38;;
68647;SDS011;55632;51.962;16.116;2023-07-16T21:47:39;12.98;;;4.90;;
68647;SDS011;55632;51.962;16.116;2023-07-16T21:52:40;8.48;;;4.05;;
68647;SDS011;55632;51.962;16.116;2023-07-16T21:57:41;4.85;;;3.72;;
68647;SDS011;55632;51.962;16.116;2023-07-16T22:02:42;8.70;;;4.60;;
68647;SDS011;55632;51.962;16.116;2023-07-16T22:07:43;8.65;;;4.22;;
68647;SDS011;55632;51.962;16.116;2023-07-16T22:12:44;11.73;;;4.55;;
68647;SDS011;55632;51.962;16.116;2023-07-16T22:17:45;7.15;;;4.20;;
68647;SDS011;55632;51.962;16.116;2023-07-16T22:22:46;9.07;;;4.47;;
68647;SDS011;55632;51.962;16.116;2023-07-16T22:27:47;5.53;;;3.92;;
68647;SDS011;55632;51.962;16.116;2023-07-16T22:32:48;8.77;;;4.63;;
68647;SDS011;55632;51.962;16.116;2023-07-16T22:37:49;6.25;;;3.88;;
68647;SDS011;55632;51.962;16.116;2023-07-16T22:42:52;7.20;;;4.15;;
68647;SDS011;55632;51.962;16.116;2023-07-16T22:47:53;5.63;;;4.07;;
68647;SDS011;55632;51.962;16.116;2023-07-16T22:52:54;6.82;;;4.15;;
68647;SDS011;55632;51.962;16.116;2023-07-16T22:57:55;13.27;;;4.65;;
68647;SDS011;55632;51.962;16.116;2023-07-16T23:02:56;11.43;;;4.80;;
68647;SDS011;55632;51.962;16.116;2023-07-16T23:07:57;8.50;;;4.57;;
68647;SDS011;55632;51.962;16.116;2023-07-16T23:12:59;7.50;;;4.10;;
68647;SDS011;55632;51.962;16.116;2023-07-16T23:17:59;14.63;;;4.22;;
68647;SDS011;55632;51.962;16.116;2023-07-16T23:23:01;9.93;;;4.90;;
68647;SDS011;55632;51.962;16.116;2023-07-16T23:28:05;11.20;;;5.40;;
68647;SDS011;55632;51.962;16.116;2023-07-16T23:33:09;7.35;;;4.60;;
68647;SDS011;55632;51.962;16.116;2023-07-16T23:38:10;8.90;;;4.90;;
68647;SDS011;55632;51.962;16.116;2023-07-16T23:43:12;12.38;;;4.88;;
68647;SDS011;55632;51.962;16.116;2023-07-16T23:48:13;9.23;;;5.40;;
68647;SDS011;55632;51.962;16.116;2023-07-16T23:53:17;14.52;;;7.22;;
68647;SDS011;55632;51.962;16.116;2023-07-16T23:58:18;30.80;;;13.23;;
